Time;durP1;ratioP1;P1;durP2;ratioP2;P2;SDS_P1;SDS_P2;PMS_P1;PMS_P2;Temp;Humidity;BMP_temperature;BMP_pressure;BME280_temperature;BME280_humidity;BME280_pressure;Samples;Min_cycle;Max_cycle;Signal;HPM_P1;HPM_P2
2024/01/24 00:01:15;;;;;;;6.05;3.95;;;11.60;99.90;;;;;;7369548;19;20841;-69
2024/01/24 00:03:42;;;;;;;6.97;4.72;;;11.60;99.90;;;;;;7374069;19;20596;-64
2024/01/24 00:06:09;;;;;;;9.20;4.47;;;11.60;99.90;;;;;;7372752;19;20081;-64
2024/01/24 00:08:36;;;;;;;9.27;4.50;;;11.60;99.90;;;;;;7369820;19;20078;-64
2024/01/24 00:11:03;;;;;;;9.55;4.60;;;11.60;99.90;;;;;;7373171;19;20013;-63
2024/01/24 00:13:30;;;;;;;6.38;4.60;;;11.70;99.90;;;;;;7370471;19;20542;-64
2024/01/24 00:15:59;;;;;;;7.85;4.30;;;11.60;99.90;;;;;;7376591;19;20018;-64
2024/01/24 00:18:26;;;;;;;8.45;4.78;;;11.70;99.90;;;;;;7370334;19;20018;-64
2024/01/24 00:20:54;;;;;;;10.75;4.80;;;11.70;99.90;;;;;;7373302;19;20135;-63
2024/01/24 00:23:23;;;;;;;8.70;4.78;;;11.70;99.90;;;;;;7368110;19;20077;-70
2024/01/24 00:25:49;;;;;;;5.70;4.35;;;11.70;99.90;;;;;;7374725;19;20367;-70
2024/01/24 00:28:16;;;;;;;7.90;4.50;;;11.80;99.90;;;;;;7371405;19;20428;-70
2024/01/24 00:30:44;;;;;;;14.05;4.60;;;11.80;99.90;;;;;;7372244;19;20904;-70
2024/01/24 00:33:11;;;;;;;6.65;3.72;;;11.80;99.90;;;;;;7370025;19;20024;-70
2024/01/24 00:35:37;;;;;;;8.13;4.22;;;11.80;99.90;;;;;;7370907;19;20023;-70
2024/01/24 00:38:04;;;;;;;5.43;3.80;;;11.80;99.90;;;;;;7373228;19;20090;-70
2024/01/24 00:40:30;;;;;;;5.03;3.35;;;11.80;99.90;;;;;;7371071;19;20073;-70
2024/01/24 00:42:56;;;;;;;9.68;3.83;;;11.80;99.90;;;;;;7372521;19;20050;-70
2024/01/24 00:45:22;;;;;;;7.28;3.47;;;11.80;99.90;;;;;;7369285;19;20014;-69
2024/01/24 00:47:48;;;;;;;5.65;3.20;;;11.80;99.90;;;;;;7371266;19;20050;-70
2024/01/24 00:50:14;;;;;;;7.57;2.78;;;11.80;99.90;;;;;;7373849;19;20015;-70
2024/01/24 00:52:41;;;;;;;5.82;2.58;;;11.90;99.90;;;;;;7369176;19;20396;-70
2024/01/24 00:55:07;;;;;;;8.32;2.97;;;11.90;99.90;;;;;;7369562;19;20062;-69
2024/01/24 00:57:34;;;;;;;5.50;2.50;;;11.90;99.90;;;;;;7369606;19;20025;-70
2024/01/24 01:00:01;;;;;;;4.63;2.20;;;11.90;99.90;;;;;;7371720;19;20387;-70
2024/01/24 01:02:28;;;;;;;6.07;2.50;;;11.90;99.90;;;;;;7372793;19;20082;-70
2024/01/24 01:04:55;;;;;;;5.90;2.05;;;11.90;99.90;;;;;;7372492;19;20023;-64
2024/01/24 01:07:21;;;;;;;6.20;2.13;;;11.90;99.90;;;;;;7369328;19;20910;-64
2024/01/24 01:09:47;;;;;;;7.80;2.17;;;12.00;99.90;;;;;;7369356;19;20015;-63
2024/01/24 01:12:13;;;;;;;8.40;2.15;;;12.00;99.90;;;;;;7370826;19;20031;-63
2024/01/24 01:14:40;;;;;;;6.55;2.47;;;12.00;99.90;;;;;;7368321;19;20022;-63
2024/01/24 01:17:08;;;;;;;5.07;2.10;;;12.00;99.90;;;;;;7369858;19;20022;-64
2024/01/24 01:19:34;;;;;;;4.18;1.70;;;12.00;99.90;;;;;;7367887;19;20384;-63
2024/01/24 01:22:01;;;;;;;6.80;2.03;;;12.00;99.90;;;;;;7370005;19;20022;-64
2024/01/24 01:24:27;;;;;;;4.32;1.55;;;12.00;99.90;;;;;;7368340;19;20026;-64
2024/01/24 01:26:53;;;;;;;4.15;1.75;;;12.00;99.90;;;;;;7368486;19;20482;-64
2024/01/24 01:29:19;;;;;;;7.65;1.55;;;11.90;99.90;;;;;;7372687;19;20055;-64
2024/01/24 01:31:46;;;;;;;6.47;1.25;;;11.90;99.90;;;;;;7367996;19;20014;-64
2024/01/24 01:34:13;;;;;;;3.58;1.10;;;12.00;99.90;;;;;;7365962;19;20102;-63
2024/01/24 01:36:40;;;;;;;3.63;1.50;;;12.00;99.90;;;;;;7373061;19;20899;-64
2024/01/24 01:39:07;;;;;;;4.47;1.20;;;12.00;99.90;;;;;;7376071;19;20018;-63
2024/01/24 01:41:36;;;;;;;5.15;1.10;;;12.00;99.90;;;;;;7373466;19;20031;-64
2024/01/24 01:44:03;;;;;;;3.67;1.02;;;12.00;99.90;;;;;;7377572;19;20015;-64
2024/01/24 01:46:31;;;;;;;3.15;1.10;;;12.00;99.90;;;;;;7372948;19;20841;-70
2024/01/24 01:49:00;;;;;;;3.53;1.00;;;12.10;99.90;;;;;;7377986;19;20018;-70
2024/01/24 01:51:27;;;;;;;2.33;1.00;;;12.30;99.90;;;;;;7377101;19;21043;-70
2024/01/24 01:53:55;;;;;;;4.35;1.13;;;12.40;99.90;;;;;;7376872;19;20020;-70
2024/01/24 01:56:23;;;;;;;3.58;1.02;;;12.50;99.90;;;;;;7371156;19;20580;-63
2024/01/24 01:58:50;;;;;;;4.20;1.38;;;12.60;99.90;;;;;;7371710;19;20019;-63
2024/01/24 02:01:18;;;;;;;4.60;1.10;;;12.70;99.90;;;;;;7373648;19;20014;-70
2024/01/24 02:03:50;;;;;;;4.45;1.20;;;12.70;99.90;;;;;;7378647;19;20482;-70
2024/01/24 02:06:17;;;;;;;4.40;1.30;;;12.50;99.90;;;;;;7375013;19;20035;-64
2024/01/24 02:08:44;;;;;;;3.08;1.05;;;12.50;99.90;;;;;;7371277;19;20525;-63
2024/01/24 02:11:12;;;;;;;6.28;1.23;;;12.50;99.90;;;;;;7378533;19;20800;-63
2024/01/24 02:13:38;;;;;;;6.43;1.35;;;12.40;99.90;;;;;;7376193;19;20027;-63
2024/01/24 02:16:05;;;;;;;4.55;1.55;;;12.50;99.90;;;;;;7375975;19;20051;-63
2024/01/24 02:18:31;;;;;;;2.72;1.17;;;12.50;99.90;;;;;;7380132;19;20046;-63
2024/01/24 02:20:58;;;;;;;6.05;1.73;;;12.40;99.90;;;;;;7375942;19;20042;-63
2024/01/24 02:23:26;;;;;;;5.70;1.08;;;12.40;99.90;;;;;;7376833;19;20884;-63
2024/01/24 02:25:53;;;;;;;5.72;1.38;;;12.40;99.90;;;;;;7376592;19;20014;-70
2024/01/24 02:28:20;;;;;;;4.07;1.35;;;12.40;99.90;;;;;;7367648;19;20014;-70
2024/01/24 02:30:46;;;;;;;3.53;0.85;;;12.50;99.90;;;;;;7377661;19;20503;-70
2024/01/24 02:33:14;;;;;;;4.40;1.20;;;12.50;99.90;;;;;;7373179;19;20018;-64
2024/01/24 02:35:40;;;;;;;5.45;1.30;;;12.50;99.90;;;;;;7370790;19;20022;-64
2024/01/24 02:38:06;;;;;;;5.47;1.15;;;12.30;99.90;;;;;;7373122;19;20420;-71
2024/01/24 02:40:32;;;;;;;7.32;1.60;;;12.30;99.90;;;;;;7374503;19;20015;-64
2024/01/24 02:42:58;;;;;;;4.72;1.10;;;12.20;99.90;;;;;;7373942;19;20039;-64
2024/01/24 02:45:25;;;;;;;7.32;1.50;;;12.20;99.90;;;;;;7376008;19;20870;-64
2024/01/24 02:47:51;;;;;;;8.30;1.45;;;12.20;99.90;;;;;;7371180;19;20077;-64
2024/01/24 02:50:18;;;;;;;9.02;1.55;;;12.20;99.90;;;;;;7367271;19;20755;-64
2024/01/24 02:52:47;;;;;;;5.25;1.20;;;11.90;99.90;;;;;;7372185;19;20018;-71
2024/01/24 02:55:15;;;;;;;8.13;1.25;;;11.90;99.90;;;;;;7374889;19;20086;-70
2024/01/24 02:57:41;;;;;;;6.28;1.48;;;11.80;99.90;;;;;;7367140;19;20025;-71
2024/01/24 03:00:08;;;;;;;12.15;1.90;;;11.70;99.90;;;;;;7375133;19;20503;-71
2024/01/24 03:02:35;;;;;;;10.93;1.80;;;11.60;99.90;;;;;;7372892;19;20018;-71
2024/01/24 03:05:01;;;;;;;12.82;2.22;;;11.50;99.90;;;;;;7375929;19;20021;-71
2024/01/24 03:07:28;;;;;;;8.68;2.50;;;11.40;99.90;;;;;;7369755;19;20022;-70
2024/01/24 03:09:55;;;;;;;11.18;2.40;;;11.40;99.90;;;;;;7375267;19;20083;-71
2024/01/24 03:12:21;;;;;;;11.82;2.08;;;11.30;99.90;;;;;;7375497;19;20102;-72
2024/01/24 03:14:48;;;;;;;19.05;3.58;;;11.30;99.90;;;;;;7374113;19;20023;-72
2024/01/24 03:17:14;;;;;;;16.60;2.53;;;11.20;99.90;;;;;;7372934;19;20021;-72
2024/01/24 03:19:41;;;;;;;18.17;3.35;;;11.20;99.90;;;;;;7369666;19;20018;-64
2024/01/24 03:22:07;;;;;;;15.98;2.38;;;11.10;99.90;;;;;;7371750;19;20119;-71
2024/01/24 03:24:33;;;;;;;11.60;3.55;;;11.00;99.90;;;;;;7374693;19;20881;-64
2024/01/24 03:26:59;;;;;;;17.77;3.47;;;11.00;99.90;;;;;;7373379;19;20029;-64
2024/01/24 03:29:25;;;;;;;16.02;3.05;;;11.00;99.90;;;;;;7373051;19;20494;-64
2024/01/24 03:31:51;;;;;;;19.70;4.57;;;10.90;99.90;;;;;;7374852;19;20509;-71
2024/01/24 03:34:18;;;;;;;15.07;3.55;;;10.90;99.90;;;;;;7375113;19;20014;-72
2024/01/24 03:36:44;;;;;;;17.45;3.40;;;11.00;99.90;;;;;;7373526;19;20576;-72
2024/01/24 03:39:10;;;;;;;12.82;2.83;;;11.00;99.90;;;;;;7369633;19;20014;-72
2024/01/24 03:41:37;;;;;;;15.40;3.53;;;10.90;99.90;;;;;;7372727;19;20122;-72
2024/01/24 03:44:04;;;;;;;16.00;3.92;;;10.90;99.90;;;;;;7372400;19;20037;-72
2024/01/24 03:46:31;;;;;;;11.43;2.80;;;11.10;99.90;;;;;;7375966;19;20018;-73
2024/01/24 03:48:57;;;;;;;14.48;4.35;;;11.10;99.90;;;;;;7371275;19;20097;-72
2024/01/24 03:51:24;;;;;;;17.63;3.63;;;11.10;99.90;;;;;;7375240;19;20123;-64
2024/01/24 03:53:50;;;;;;;17.63;3.85;;;11.20;99.90;;;;;;7371420;19;20022;-63
2024/01/24 03:56:17;;;;;;;15.93;3.35;;;11.20;99.90;;;;;;7368899;19;20048;-72
2024/01/24 03:58:43;;;;;;;14.30;3.13;;;11.10;99.90;;;;;;7370771;19;20026;-72
2024/01/24 04:01:10;;;;;;;21.42;5.05;;;11.20;99.90;;;;;;7371110;19;20022;-72
2024/01/24 04:03:36;;;;;;;17.95;3.90;;;11.30;99.90;;;;;;7371636;19;20450;-72
2024/01/24 04:06:03;;;;;;;15.68;3.65;;;11.30;99.90;;;;;;7371890;19;20018;-72
2024/01/24 04:08:29;;;;;;;22.52;4.45;;;11.30;99.90;;;;;;7369061;19;20101;-72
2024/01/24 04:10:55;;;;;;;18.63;4.25;;;11.30;99.90;;;;;;7370467;19;20021;-72
2024/01/24 04:13:21;;;;;;;22.80;4.60;;;11.30;99.90;;;;;;7372887;19;20370;-64
2024/01/24 04:15:48;;;;;;;19.90;4.43;;;11.40;99.90;;;;;;7366180;19;20024;-64
2024/01/24 04:18:15;;;;;;;24.05;4.25;;;11.40;99.90;;;;;;7371786;19;20020;-64
2024/01/24 04:20:44;;;;;;;21.75;4.57;;;11.40;99.90;;;;;;7362471;19;20021;-64
2024/01/24 04:23:11;;;;;;;19.90;4.35;;;11.40;99.90;;;;;;7369606;19;20128;-72
2024/01/24 04:25:38;;;;;;;28.05;5.07;;;11.40;99.90;;;;;;7368914;19;20025;-72
2024/01/24 04:28:05;;;;;;;18.63;3.97;;;11.40;99.90;;;;;;7366652;19;20007;-73
2024/01/24 04:30:32;;;;;;;20.27;4.78;;;11.40;99.90;;;;;;7365822;19;20903;-73
2024/01/24 04:32:59;;;;;;;24.52;5.28;;;11.40;99.90;;;;;;7368994;19;20033;-72
2024/01/24 04:35:26;;;;;;;22.30;4.18;;;11.40;99.90;;;;;;7363959;19;20018;-64
2024/01/24 04:37:52;;;;;;;24.42;4.55;;;11.40;99.90;;;;;;7369926;19;20022;-64
2024/01/24 04:40:18;;;;;;;16.10;4.25;;;11.40;99.90;;;;;;7364103;19;20846;-64
2024/01/24 04:42:45;;;;;;;23.08;4.30;;;11.40;99.90;;;;;;7369962;19;20931;-64
2024/01/24 04:45:13;;;;;;;21.42;4.28;;;11.40;99.90;;;;;;7364232;19;20023;-64
2024/01/24 04:47:42;;;;;;;25.73;4.53;;;11.40;99.90;;;;;;7368353;19;20015;-72
2024/01/24 04:50:10;;;;;;;18.52;4.70;;;11.40;99.90;;;;;;7366170;19;20054;-73
2024/01/24 04:52:36;;;;;;;24.02;5.38;;;11.40;99.90;;;;;;7364437;19;20022;-72
2024/01/24 04:55:03;;;;;;;18.75;4.88;;;11.30;99.90;;;;;;7365817;19;20010;-74
2024/01/24 04:57:29;;;;;;;23.10;4.93;;;11.30;99.90;;;;;;7366417;19;20106;-73
2024/01/24 04:59:55;;;;;;;22.83;5.13;;;11.30;99.90;;;;;;7362537;19;20014;-64
2024/01/24 05:02:22;;;;;;;18.13;5.32;;;11.30;99.90;;;;;;7364871;19;20097;-64
2024/01/24 05:04:48;;;;;;;26.83;5.13;;;11.20;99.90;;;;;;7363775;19;20762;-64
2024/01/24 05:07:14;;;;;;;23.77;4.80;;;11.20;99.90;;;;;;7364787;19;20367;-64
2024/01/24 05:09:40;;;;;;;22.13;5.75;;;11.20;99.90;;;;;;7364122;19;20023;-64
2024/01/24 05:12:09;;;;;;;26.70;5.88;;;11.20;99.90;;;;;;7372288;19;20014;-64
2024/01/24 05:14:35;;;;;;;27.52;6.07;;;11.30;99.90;;;;;;7373455;19;20530;-64
2024/01/24 05:17:02;;;;;;;27.35;5.43;;;11.20;99.90;;;;;;7371819;19;20471;-73
2024/01/24 05:19:28;;;;;;;24.05;5.22;;;11.20;99.90;;;;;;7369395;19;20739;-72
2024/01/24 05:21:54;;;;;;;24.05;5.97;;;11.20;99.90;;;;;;7370494;19;20022;-74
2024/01/24 05:24:20;;;;;;;26.58;6.47;;;11.20;99.90;;;;;;7373646;19;20067;-74
2024/01/24 05:26:46;;;;;;;23.92;5.30;;;11.10;99.90;;;;;;7371595;19;20022;-73
2024/01/24 05:29:16;;;;;;;32.67;6.50;;;11.00;99.90;;;;;;7373999;19;20493;-72
2024/01/24 05:31:42;;;;;;;23.73;6.10;;;11.00;99.90;;;;;;7368525;19;20610;-64
2024/01/24 05:34:08;;;;;;;23.95;5.03;;;10.90;99.90;;;;;;7373935;19;20015;-64
2024/01/24 05:36:38;;;;;;;29.73;5.90;;;11.00;99.90;;;;;;7369418;19;20078;-64
2024/01/24 05:39:06;;;;;;;31.25;7.55;;;10.90;99.90;;;;;;7371394;19;20015;-72
2024/01/24 05:41:35;;;;;;;26.05;6.85;;;10.80;99.90;;;;;;7372615;19;20089;-72
2024/01/24 05:44:02;;;;;;;23.33;6.07;;;10.70;99.90;;;;;;7378081;19;20070;-73
2024/01/24 05:46:28;;;;;;;30.63;6.38;;;10.60;99.90;;;;;;7377104;19;20553;-71
2024/01/24 05:48:55;;;;;;;30.35;6.70;;;10.70;99.90;;;;;;7377419;19;20014;-72
2024/01/24 05:51:21;;;;;;;27.17;6.63;;;10.70;99.90;;;;;;7374969;19;20046;-65
2024/01/24 05:53:48;;;;;;;27.92;5.50;;;10.70;99.90;;;;;;7373407;19;20374;-64
2024/01/24 05:56:14;;;;;;;24.58;6.22;;;10.60;99.90;;;;;;7374368;19;20478;-64
2024/01/24 05:58:40;;;;;;;29.80;6.45;;;10.60;99.90;;;;;;7378637;19;20032;-65
2024/01/24 06:01:07;;;;;;;26.65;6.35;;;10.60;99.90;;;;;;7374510;19;20127;-64
2024/01/24 06:03:33;;;;;;;31.08;7.75;;;10.60;99.90;;;;;;7374167;19;20042;-64
2024/01/24 06:05:59;;;;;;;30.48;6.43;;;10.60;99.90;;;;;;7376471;19;20114;-73
2024/01/24 06:08:26;;;;;;;31.15;7.85;;;10.60;99.90;;;;;;7375687;19;20022;-72
2024/01/24 06:10:52;;;;;;;33.42;7.40;;;10.60;99.90;;;;;;7367502;19;20019;-72
2024/01/24 06:13:18;;;;;;;34.30;6.97;;;10.50;99.90;;;;;;7372696;19;20031;-72
2024/01/24 06:15:44;;;;;;;35.50;7.82;;;10.50;99.90;;;;;;7367549;19;20372;-64
2024/01/24 06:18:11;;;;;;;37.20;8.30;;;10.50;99.90;;;;;;7369791;19;20022;-64
2024/01/24 06:20:37;;;;;;;37.22;8.02;;;10.50;99.90;;;;;;7368416;19;20023;-72
2024/01/24 06:23:03;;;;;;;41.53;8.48;;;10.50;99.90;;;;;;7368940;19;20085;-73
2024/01/24 06:25:30;;;;;;;31.80;6.72;;;10.50;99.90;;;;;;7365123;19;20014;-72
2024/01/24 06:27:56;;;;;;;28.05;7.95;;;10.50;99.90;;;;;;7371280;19;21090;-64
2024/01/24 06:30:22;;;;;;;35.90;7.47;;;10.50;99.90;;;;;;7373443;19;20026;-63
2024/01/24 06:32:48;;;;;;;41.58;8.35;;;10.50;99.90;;;;;;7371649;19;20546;-72
2024/01/24 06:35:15;;;;;;;29.05;7.45;;;10.50;99.90;;;;;;7373950;19;20011;-63
2024/01/24 06:37:41;;;;;;;30.55;7.97;;;10.50;99.90;;;;;;7369656;19;20022;-72
2024/01/24 06:40:09;;;;;;;36.88;8.27;;;10.50;99.90;;;;;;7369618;19;20042;-72
2024/01/24 06:42:38;;;;;;;31.17;8.43;;;10.40;99.90;;;;;;7370513;19;20018;-63
2024/01/24 06:45:06;;;;;;;36.83;8.68;;;10.40;99.90;;;;;;7371991;19;20035;-63
2024/01/24 06:47:34;;;;;;;36.28;8.65;;;10.40;99.90;;;;;;7374000;19;20098;-72
2024/01/24 06:50:01;;;;;;;30.00;6.82;;;10.30;99.90;;;;;;7374907;19;20090;-64
2024/01/24 06:52:30;;;;;;;33.60;7.70;;;10.40;99.90;;;;;;7370028;19;20047;-71
2024/01/24 06:54:57;;;;;;;35.95;7.55;;;10.30;99.90;;;;;;7372148;19;20078;-72
2024/01/24 06:57:25;;;;;;;32.85;7.93;;;10.30;99.90;;;;;;7371869;19;20020;-63
2024/01/24 06:59:52;;;;;;;30.77;8.50;;;10.30;99.90;;;;;;7369867;19;20018;-63
2024/01/24 07:02:19;;;;;;;32.30;8.27;;;10.30;99.90;;;;;;7371975;19;21144;-63
2024/01/24 07:04:47;;;;;;;32.67;7.80;;;10.30;99.90;;;;;;7367670;19;20093;-63
2024/01/24 07:07:14;;;;;;;37.58;7.70;;;10.30;99.90;;;;;;7371750;19;20436;-63
2024/01/24 07:09:41;;;;;;;41.40;8.73;;;10.30;99.90;;;;;;7371206;19;20062;-71
2024/01/24 07:12:08;;;;;;;37.75;8.40;;;10.40;99.90;;;;;;7374151;19;20514;-70
2024/01/24 07:14:36;;;;;;;34.35;8.93;;;10.40;99.90;;;;;;7373216;19;20018;-71
2024/01/24 07:17:05;;;;;;;35.35;7.47;;;10.40;99.90;;;;;;7371150;19;20055;-71
2024/01/24 07:19:32;;;;;;;43.15;8.07;;;10.40;99.90;;;;;;7371146;19;20018;-63
2024/01/24 07:21:58;;;;;;;36.70;9.05;;;10.30;99.90;;;;;;7373306;19;20449;-72
2024/01/24 07:24:24;;;;;;;29.55;8.13;;;10.40;99.90;;;;;;7370333;19;20018;-72
2024/01/24 07:26:50;;;;;;;40.58;8.57;;;10.40;99.90;;;;;;7371929;19;20075;-72
2024/01/24 07:29:16;;;;;;;38.20;9.27;;;10.40;99.90;;;;;;7372767;19;20023;-71
2024/01/24 07:31:43;;;;;;;39.75;8.18;;;10.40;99.90;;;;;;7367906;19;20471;-71
2024/01/24 07:34:11;;;;;;;37.45;8.30;;;10.50;99.90;;;;;;7366709;19;20094;-72
2024/01/24 07:36:37;;;;;;;37.15;8.90;;;10.50;99.90;;;;;;7371272;19;20279;-70
2024/01/24 07:39:06;;;;;;;38.95;8.85;;;10.50;99.90;;;;;;7371647;19;20604;-63
2024/01/24 07:41:32;;;;;;;38.38;7.50;;;10.50;99.90;;;;;;7370346;19;20977;-71
2024/01/24 07:43:59;;;;;;;29.83;6.65;;;10.50;99.90;;;;;;7369268;19;20022;-71
2024/01/24 07:46:27;;;;;;;35.53;8.55;;;10.50;99.90;;;;;;7371048;19;20018;-63
2024/01/24 07:48:54;;;;;;;31.13;7.38;;;10.40;99.90;;;;;;7370124;19;20033;-63
2024/01/24 07:51:20;;;;;;;35.10;8.45;;;10.40;99.90;;;;;;7369663;19;20021;-63
2024/01/24 07:53:50;;;;;;;37.70;8.80;;;10.40;99.90;;;;;;7367433;19;20472;-70
2024/01/24 07:56:16;;;;;;;33.78;8.00;;;10.50;99.90;;;;;;7370430;19;20590;-71
2024/01/24 07:58:43;;;;;;;38.38;9.00;;;10.50;99.90;;;;;;7369836;19;20011;-63
2024/01/24 08:01:09;;;;;;;32.90;8.63;;;10.40;99.90;;;;;;7364594;19;20502;-63
2024/01/24 08:03:36;;;;;;;32.80;7.07;;;10.30;99.90;;;;;;7365092;19;20845;-63
2024/01/24 08:06:02;;;;;;;41.92;9.75;;;10.40;99.90;;;;;;7368930;19;20022;-63
2024/01/24 08:08:28;;;;;;;37.92;8.07;;;10.30;99.90;;;;;;7370243;19;20826;-63
2024/01/24 08:10:55;;;;;;;34.50;8.52;;;10.30;99.90;;;;;;7367048;19;20014;-64
2024/01/24 08:13:21;;;;;;;36.90;7.60;;;10.30;99.90;;;;;;7367514;19;20501;-63
2024/01/24 08:15:47;;;;;;;35.38;7.55;;;10.30;99.90;;;;;;7365486;19;20864;-63
2024/01/24 08:18:14;;;;;;;39.65;7.45;;;10.20;99.90;;;;;;7368755;19;20090;-63
2024/01/24 08:20:41;;;;;;;32.92;6.80;;;10.20;99.90;;;;;;7369058;19;20022;-63
2024/01/24 08:23:08;;;;;;;39.80;10.98;;;10.20;99.90;;;;;;7369436;19;20051;-63
2024/01/24 08:25:35;;;;;;;44.75;9.20;;;10.20;99.90;;;;;;7369148;19;20515;-72
2024/01/24 08:28:02;;;;;;;31.17;7.75;;;10.10;99.90;;;;;;7368796;19;20026;-72
2024/01/24 08:30:30;;;;;;;31.08;7.68;;;10.10;99.90;;;;;;7371850;19;20056;-64
2024/01/24 08:32:57;;;;;;;40.03;8.88;;;10.10;99.90;;;;;;7368683;19;20057;-64
2024/01/24 08:35:24;;;;;;;39.25;9.18;;;10.10;99.90;;;;;;7369513;19;20789;-63
2024/01/24 08:37:51;;;;;;;39.35;8.30;;;10.20;99.90;;;;;;7367971;19;20102;-63
2024/01/24 08:40:18;;;;;;;36.40;8.75;;;10.20;99.90;;;;;;7373135;19;20041;-70
2024/01/24 08:42:45;;;;;;;39.08;8.55;;;10.20;99.90;;;;;;7374334;19;20015;-71
2024/01/24 08:45:12;;;;;;;37.70;10.10;;;10.30;99.90;;;;;;7373877;19;20014;-71
2024/01/24 08:47:38;;;;;;;41.05;8.20;;;10.20;99.90;;;;;;7371542;19;20018;-70
2024/01/24 08:50:05;;;;;;;32.50;7.78;;;10.30;99.90;;;;;;7371850;19;20011;-71
2024/01/24 08:52:32;;;;;;;33.55;8.35;;;10.30;99.90;;;;;;7373811;19;20023;-72
2024/01/24 08:54:58;;;;;;;33.85;8.02;;;10.30;99.90;;;;;;7367813;19;20014;-72
2024/01/24 08:57:24;;;;;;;34.75;9.55;;;10.30;99.90;;;;;;7371089;19;20026;-72
2024/01/24 08:59:52;;;;;;;38.65;9.65;;;10.40;99.90;;;;;;7373858;19;20022;-71
2024/01/24 09:02:18;;;;;;;37.40;8.65;;;10.30;99.90;;;;;;7371523;19;20053;-65
2024/01/24 09:04:46;;;;;;;47.38;9.93;;;10.30;99.90;;;;;;7371780;19;20116;-74
2024/01/24 09:07:16;;;;;;;41.20;9.55;;;10.30;99.90;;;;;;7370414;19;20030;-70
2024/01/24 09:09:42;;;;;;;36.50;10.13;;;10.30;99.90;;;;;;7369268;19;20042;-70
2024/01/24 09:12:09;;;;;;;36.75;9.23;;;10.30;99.90;;;;;;7370966;19;20527;-70
2024/01/24 09:14:35;;;;;;;36.75;8.55;;;10.30;99.90;;;;;;7368774;19;20022;-64
2024/01/24 09:17:01;;;;;;;42.70;9.90;;;10.40;99.90;;;;;;7368164;19;20011;-64
2024/01/24 09:19:27;;;;;;;37.97;8.70;;;10.30;99.90;;;;;;7369179;19;20121;-70
2024/01/24 09:21:54;;;;;;;35.10;7.80;;;10.50;99.90;;;;;;7369409;19;20022;-72
2024/01/24 09:24:20;;;;;;;37.05;8.88;;;10.60;99.90;;;;;;7365577;19;20018;-71
2024/01/24 09:26:46;;;;;;;42.75;9.02;;;10.70;99.90;;;;;;7367378;19;20022;-70
2024/01/24 09:29:13;;;;;;;34.28;8.55;;;10.60;99.90;;;;;;7363746;19;20183;-70
2024/01/24 09:31:45;;;;;;;37.65;8.98;;;10.60;99.90;;;;;;7364944;19;20341;-64
2024/01/24 09:34:12;;;;;;;34.80;7.57;;;10.60;99.90;;;;;;7362663;19;20025;-70
2024/01/24 09:36:38;;;;;;;31.92;8.75;;;10.60;99.90;;;;;;7366616;19;20785;-71
2024/01/24 09:39:07;;;;;;;37.75;9.38;;;10.60;99.90;;;;;;7369302;19;20019;-74
2024/01/24 09:41:39;;;;;;;33.33;8.50;;;10.60;99.90;;;;;;7370934;19;20153;-71
2024/01/24 09:44:11;;;;;;;34.75;7.90;;;10.60;99.90;;;;;;7368700;19;20019;-70
2024/01/24 09:46:41;;;;;;;35.88;9.38;;;10.80;99.90;;;;;;7368029;19;20018;-71
2024/01/24 09:49:10;;;;;;;36.22;9.52;;;11.10;99.90;;;;;;7370095;19;20048;-71
2024/01/24 09:51:37;;;;;;;33.78;7.88;;;11.30;99.90;;;;;;7357175;19;20985;-64
2024/01/24 09:54:07;;;;;;;35.38;9.40;;;11.70;99.90;;;;;;7359685;19;20015;-64
2024/01/24 09:56:36;;;;;;;28.58;6.90;;;11.80;99.90;;;;;;7353866;19;20006;-64
2024/01/24 09:59:05;;;;;;;35.67;8.23;;;12.20;99.90;;;;;;7360168;19;20015;-71
2024/01/24 10:01:38;;;;;;;29.38;7.63;;;12.10;99.90;;;;;;7370302;19;20015;-63
2024/01/24 10:04:05;;;;;;;38.40;8.73;;;12.30;99.90;;;;;;7376021;19;20035;-64
2024/01/24 10:06:33;;;;;;;37.53;9.02;;;12.40;99.90;;;;;;7375131;19;20528;-63
2024/01/24 10:09:00;;;;;;;31.75;9.40;;;12.60;99.90;;;;;;7371583;19;20102;-63
2024/01/24 10:11:27;;;;;;;34.60;7.50;;;12.50;99.90;;;;;;7372760;19;20118;-63
2024/01/24 10:13:57;;;;;;;32.85;8.23;;;12.50;99.90;;;;;;7366675;19;20018;-63
2024/01/24 10:16:26;;;;;;;38.08;8.25;;;12.60;99.90;;;;;;7369515;19;20014;-63
2024/01/24 10:18:54;;;;;;;30.67;8.38;;;12.80;99.90;;;;;;7371415;19;20018;-71
2024/01/24 10:21:21;;;;;;;26.63;7.93;;;12.80;99.90;;;;;;7372977;19;20015;-63
2024/01/24 10:23:48;;;;;;;35.33;8.38;;;12.40;99.90;;;;;;7369809;19;20018;-63
2024/01/24 10:26:15;;;;;;;37.85;8.15;;;12.70;99.90;;;;;;7370036;19;20022;-70
2024/01/24 10:28:43;;;;;;;31.08;7.97;;;12.80;99.90;;;;;;7372310;19;20029;-70
2024/01/24 10:31:11;;;;;;;30.10;7.95;;;12.60;99.90;;;;;;7371033;19;20028;-63
2024/01/24 10:33:38;;;;;;;30.13;8.27;;;12.60;99.90;;;;;;7364019;19;20014;-64
2024/01/24 10:36:06;;;;;;;34.25;7.95;;;12.70;99.90;;;;;;7371898;19;20025;-64
2024/01/24 10:38:35;;;;;;;29.92;7.10;;;13.00;99.90;;;;;;7370512;19;20074;-64
2024/01/24 10:41:02;;;;;;;26.95;7.97;;;13.00;99.90;;;;;;7370215;19;20482;-64
2024/01/24 10:43:30;;;;;;;35.08;7.68;;;13.10;99.90;;;;;;7373709;19;20018;-64
2024/01/24 10:45:57;;;;;;;27.77;6.75;;;12.90;99.90;;;;;;7372210;19;20636;-65
2024/01/24 10:48:23;;;;;;;26.50;6.72;;;13.20;99.90;;;;;;7372357;19;20023;-64
2024/01/24 10:50:51;;;;;;;31.95;9.10;;;13.50;99.90;;;;;;7371917;19;20014;-71
2024/01/24 10:53:19;;;;;;;26.67;6.70;;;13.60;99.90;;;;;;7369286;19;20019;-65
2024/01/24 10:55:48;;;;;;;24.05;7.22;;;13.00;99.90;;;;;;7370336;19;20031;-66
2024/01/24 10:58:15;;;;;;;26.35;6.88;;;13.10;99.90;;;;;;7375638;19;20558;-65
2024/01/24 11:00:41;;;;;;;30.58;7.82;;;12.70;99.90;;;;;;7372784;19;20387;-64
2024/01/24 11:03:08;;;;;;;26.73;6.18;;;12.50;99.90;;;;;;7372251;19;20099;-64
2024/01/24 11:05:49;;;;;;;32.58;6.80;;;12.40;99.90;;;;;;7372061;19;20019;-64
2024/01/24 11:08:30;;;;;;;24.83;5.82;;;12.40;99.90;;;;;;7370209;19;20030;-64
2024/01/24 11:11:01;;;;;;;20.60;5.73;;;12.50;99.90;;;;;;7372454;19;20019;-71
2024/01/24 11:13:27;;;;;;;22.50;6.07;;;12.60;99.90;;;;;;7370843;19;20025;-64
2024/01/24 11:15:56;;;;;;;36.10;11.88;;;12.50;99.90;;;;;;7369737;19;20089;-64
2024/01/24 11:18:32;;;;;;;24.70;5.82;;;12.50;99.90;;;;;;7371000;19;20090;-64
2024/01/24 11:21:00;;;;;;;24.00;6.28;;;12.50;99.90;;;;;;7371802;19;20528;-64
2024/01/24 11:23:46;;;;;;;28.48;6.43;;;12.70;99.90;;;;;;7374327;19;20014;-65
2024/01/24 11:26:19;;;;;;;20.25;5.25;;;12.30;99.90;;;;;;7374877;19;20421;-64
2024/01/24 11:28:47;;;;;;;21.10;5.45;;;12.40;99.90;;;;;;7371124;19;20109;-65
2024/01/24 11:31:14;;;;;;;27.67;6.75;;;12.50;99.90;;;;;;7372457;19;20129;-62
2024/01/24 11:34:11;;;;;;;24.48;6.55;;;12.60;99.90;;;;;;7370568;19;20021;-65
2024/01/24 11:36:50;;;;;;;25.42;6.03;;;12.50;99.90;;;;;;7367458;19;20052;-71
2024/01/24 11:39:35;;;;;;;26.67;5.97;;;12.30;99.90;;;;;;7375225;19;20014;-65
2024/01/24 11:42:24;;;;;;;21.67;5.07;;;12.20;99.90;;;;;;7374647;19;20011;-71
2024/01/24 11:45:11;;;;;;;18.77;5.43;;;12.10;99.90;;;;;;7371670;19;20018;-72
2024/01/24 11:47:39;;;;;;;46.28;25.13;;;12.10;99.90;;;;;;7370007;19;20108;-60
2024/01/24 11:50:07;;;;;;;20.65;5.55;;;12.20;99.90;;;;;;7371174;19;20058;-66
2024/01/24 11:52:35;;;;;;;29.25;5.65;;;11.90;99.90;;;;;;7369337;19;20018;-67
2024/01/24 11:55:02;;;;;;;27.02;6.20;;;11.70;99.90;;;;;;7371079;19;20109;-69
2024/01/24 11:57:29;;;;;;;24.17;5.75;;;11.50;99.90;;;;;;7372083;19;20014;-69
2024/01/24 11:59:56;;;;;;;23.58;6.65;;;11.50;99.90;;;;;;7370656;19;21144;-70
2024/01/24 12:02:23;;;;;;;26.60;5.95;;;11.50;99.90;;;;;;7367343;19;20019;-69
2024/01/24 12:04:50;;;;;;;27.25;6.05;;;11.60;99.90;;;;;;7366352;19;20503;-67
2024/01/24 12:07:20;;;;;;;20.13;5.15;;;11.50;99.90;;;;;;7374756;19;20026;-61
2024/01/24 12:09:47;;;;;;;23.38;5.65;;;11.50;99.90;;;;;;7366382;19;20018;-61
2024/01/24 12:12:14;;;;;;;24.52;4.95;;;11.60;99.90;;;;;;7373186;19;20020;-61
2024/01/24 12:14:41;;;;;;;21.98;5.78;;;11.60;99.90;;;;;;7366393;19;20846;-61
2024/01/24 12:17:08;;;;;;;23.73;5.93;;;11.70;99.90;;;;;;7362506;19;20039;-62
2024/01/24 12:19:35;;;;;;;24.40;5.28;;;11.40;99.90;;;;;;7357785;19;20377;-66
2024/01/24 12:22:09;;;;;;;24.17;6.60;;;11.70;99.90;;;;;;7374522;19;20100;-61
2024/01/24 12:24:40;;;;;;;24.75;5.90;;;11.70;99.90;;;;;;7371279;19;20018;-67
2024/01/24 12:27:08;;;;;;;27.42;6.75;;;11.70;99.90;;;;;;7371808;19;20053;-68
2024/01/24 12:29:35;;;;;;;24.60;5.40;;;11.70;99.90;;;;;;7372713;19;20047;-67
2024/01/24 12:32:03;;;;;;;21.23;6.32;;;11.70;99.90;;;;;;7370640;19;20038;-62
2024/01/24 12:34:30;;;;;;;33.05;6.88;;;12.00;99.90;;;;;;7371478;19;20010;-61
2024/01/24 12:36:57;;;;;;;29.30;7.15;;;12.10;99.90;;;;;;7367702;19;20018;-61
2024/01/24 12:39:43;;;;;;;21.98;5.55;;;12.00;99.90;;;;;;7371631;19;20022;-62